Pembroke, North Carolina
Current Conditions -  °F | °C
As of 6:54 AM on Friday 24 Oct 2014 (Local Time) from KLBT Reporting Station
Clear Clear  
Wind Chill: 43°   Ceiling: Unl
Heat Index: 45°   Visibility: 10mi
Dew Point: 42°   Wind: 5mph
Humidity: 90%   Direction: 240°WSW
Pressure: 30.03"   Gusts: NA
Location:  34.68°N, 79.2°W
Report Text: KLBT 241054Z AUTO 24004KT 10SM CLR 07/06 A3003 RMK AO2 SLP167 T00720056
Loading
Personal Weather Stations






























Interactive Weather Map
Tropical Storm Tracking
New forecast layout! Learn more

10-Day Weather Forecast

Advertisements
Track Severe Weather on mobile